sensor_id;sensor_type;location;lat;lon;timestamp;P1;durP1;ratioP1;P2;durP2;ratioP2
44750;SDS011;30477;48.224;11.470;2022-09-27T20:24:48;1.05;;;0.95;;
44750;SDS011;30477;48.224;11.470;2022-09-27T20:27:13;1.23;;;1.10;;
44750;SDS011;30477;48.224;11.470;2022-09-27T20:29:39;3.10;;;1.00;;
44750;SDS011;30477;48.224;11.470;2022-09-27T20:32:04;1.70;;;1.10;;
44750;SDS011;30477;48.224;11.470;2022-09-27T20:34:29;1.50;;;1.03;;
44750;SDS011;30477;48.224;11.470;2022-09-27T20:36:55;1.73;;;1.13;;
44750;SDS011;30477;48.224;11.470;2022-09-27T20:39:20;3.93;;;1.20;;
44750;SDS011;30477;48.224;11.470;2022-09-27T20:41:47;1.65;;;1.20;;
44750;SDS011;30477;48.224;11.470;2022-09-27T20:44:14;2.47;;;1.80;;
44750;SDS011;30477;48.224;11.470;2022-09-27T20:46:41;3.00;;;1.50;;
44750;SDS011;30477;48.224;11.470;2022-09-27T20:49:10;2.00;;;1.65;;
44750;SDS011;30477;48.224;11.470;2022-09-27T20:51:39;2.53;;;1.63;;
44750;SDS011;30477;48.224;11.470;2022-09-27T20:54:07;1.92;;;1.27;;
44750;SDS011;30477;48.224;11.470;2022-09-27T20:56:40;1.80;;;1.40;;
44750;SDS011;30477;48.224;11.470;2022-09-27T20:59:15;1.52;;;1.40;;
44750;SDS011;30477;48.224;11.470;2022-09-27T21:01:42;3.42;;;1.38;;
44750;SDS011;30477;48.224;11.470;2022-09-27T21:04:09;2.75;;;1.27;;
44750;SDS011;30477;48.224;11.470;2022-09-27T21:06:36;1.15;;;0.98;;
44750;SDS011;30477;48.224;11.470;2022-09-27T21:09:03;1.20;;;1.10;;
44750;SDS011;30477;48.224;11.470;2022-09-27T21:11:29;1.60;;;1.25;;
44750;SDS011;30477;48.224;11.470;2022-09-27T21:13:55;1.50;;;1.40;;
44750;SDS011;30477;48.224;11.470;2022-09-27T21:16:24;0.87;;;0.73;;
44750;SDS011;30477;48.224;11.470;2022-09-27T21:18:51;1.10;;;1.00;;
44750;SDS011;30477;48.224;11.470;2022-09-27T21:21:17;1.33;;;1.00;;
44750;SDS011;30477;48.224;11.470;2022-09-27T21:23:44;2.25;;;1.15;;
44750;SDS011;30477;48.224;11.470;2022-09-27T21:26:17;1.48;;;1.00;;
44750;SDS011;30477;48.224;11.470;2022-09-27T21:28:47;2.60;;;1.30;;
44750;SDS011;30477;48.224;11.470;2022-09-27T21:31:15;2.25;;;1.20;;
44750;SDS011;30477;48.224;11.470;2022-09-27T21:33:44;2.28;;;1.13;;
44750;SDS011;30477;48.224;11.470;2022-09-27T21:36:11;2.60;;;1.10;;
44750;SDS011;30477;48.224;11.470;2022-09-27T21:38:37;1.20;;;0.90;;
44750;SDS011;30477;48.224;11.470;2022-09-27T21:41:04;0.90;;;0.80;;
44750;SDS011;30477;48.224;11.470;2022-09-27T21:43:35;2.33;;;1.10;;
44750;SDS011;30477;48.224;11.470;2022-09-27T21:46:11;2.00;;;0.90;;
44750;SDS011;30477;48.224;11.470;2022-09-27T21:48:39;1.40;;;0.73;;
44750;SDS011;30477;48.224;11.470;2022-09-27T21:53:36;0.55;;;0.55;;
44750;SDS011;30477;48.224;11.470;2022-09-27T21:56:02;0.90;;;0.80;;
44750;SDS011;30477;48.224;11.470;2022-09-27T21:58:33;1.88;;;0.90;;
44750;SDS011;30477;48.224;11.470;2022-09-27T22:01:10;2.28;;;1.00;;
44750;SDS011;30477;48.224;11.470;2022-09-27T22:03:37;1.48;;;0.90;;
44750;SDS011;30477;48.224;11.470;2022-09-27T22:06:03;2.55;;;1.27;;
44750;SDS011;30477;48.224;11.470;2022-09-27T22:08:32;1.25;;;0.90;;
44750;SDS011;30477;48.224;11.470;2022-09-27T22:10:58;1.37;;;0.80;;
44750;SDS011;30477;48.224;11.470;2022-09-27T22:13:23;1.20;;;0.80;;
44750;SDS011;30477;48.224;11.470;2022-09-27T22:15:48;2.23;;;0.80;;
44750;SDS011;30477;48.224;11.470;2022-09-27T22:18:15;2.63;;;1.00;;
44750;SDS011;30477;48.224;11.470;2022-09-27T22:20:40;2.58;;;0.90;;
44750;SDS011;30477;48.224;11.470;2022-09-27T22:23:06;1.60;;;0.90;;
44750;SDS011;30477;48.224;11.470;2022-09-27T22:25:31;2.00;;;0.97;;
44750;SDS011;30477;48.224;11.470;2022-09-27T22:27:56;2.50;;;0.77;;
44750;SDS011;30477;48.224;11.470;2022-09-27T22:30:22;1.10;;;0.80;;
44750;SDS011;30477;48.224;11.470;2022-09-27T22:32:47;1.00;;;0.80;;
44750;SDS011;30477;48.224;11.470;2022-09-27T22:35:13;2.10;;;0.90;;
44750;SDS011;30477;48.224;11.470;2022-09-27T22:37:38;2.03;;;1.13;;
44750;SDS011;30477;48.224;11.470;2022-09-27T22:40:04;2.23;;;0.83;;
44750;SDS011;30477;48.224;11.470;2022-09-27T22:42:30;1.00;;;0.90;;
44750;SDS011;30477;48.224;11.470;2022-09-27T22:44:55;2.23;;;1.33;;
44750;SDS011;30477;48.224;11.470;2022-09-27T22:47:20;1.00;;;0.93;;
44750;SDS011;30477;48.224;11.470;2022-09-27T22:49:46;1.60;;;0.80;;
44750;SDS011;30477;48.224;11.470;2022-09-27T22:52:11;2.43;;;0.80;;
44750;SDS011;30477;48.224;11.470;2022-09-27T22:54:36;1.23;;;0.80;;
44750;SDS011;30477;48.224;11.470;2022-09-27T22:57:02;1.47;;;0.83;;
44750;SDS011;30477;48.224;11.470;2022-09-27T22:59:27;2.35;;;1.00;;
44750;SDS011;30477;48.224;11.470;2022-09-27T23:01:53;1.17;;;0.90;;
44750;SDS011;30477;48.224;11.470;2022-09-27T23:04:19;0.77;;;0.77;;
44750;SDS011;30477;48.224;11.470;2022-09-27T23:06:44;0.93;;;0.70;;
44750;SDS011;30477;48.224;11.470;2022-09-27T23:09:10;1.60;;;0.73;;
44750;SDS011;30477;48.224;11.470;2022-09-27T23:11:35;0.80;;;0.80;;
44750;SDS011;30477;48.224;11.470;2022-09-27T23:14:05;1.10;;;0.73;;
44750;SDS011;30477;48.224;11.470;2022-09-27T23:16:31;1.52;;;1.00;;
44750;SDS011;30477;48.224;11.470;2022-09-27T23:18:58;1.88;;;0.80;;
44750;SDS011;30477;48.224;11.470;2022-09-27T23:21:24;1.20;;;0.70;;
44750;SDS011;30477;48.224;11.470;2022-09-27T23:26:20;1.63;;;1.05;;
44750;SDS011;30477;48.224;11.470;2022-09-27T23:28:52;2.20;;;1.25;;
44750;SDS011;30477;48.224;11.470;2022-09-27T23:31:18;4.53;;;1.40;;
44750;SDS011;30477;48.224;11.470;2022-09-27T23:33:45;1.98;;;1.00;;
44750;SDS011;30477;48.224;11.470;2022-09-27T23:36:13;2.10;;;1.13;;
44750;SDS011;30477;48.224;11.470;2022-09-27T23:38:40;2.13;;;0.90;;
44750;SDS011;30477;48.224;11.470;2022-09-27T23:41:06;1.33;;;1.10;;
44750;SDS011;30477;48.224;11.470;2022-09-27T23:45:57;2.35;;;1.25;;
44750;SDS011;30477;48.224;11.470;2022-09-27T23:48:23;1.93;;;0.90;;
44750;SDS011;30477;48.224;11.470;2022-09-27T23:53:15;1.40;;;1.00;;
44750;SDS011;30477;48.224;11.470;2022-09-27T23:55:41;1.40;;;0.77;;
44750;SDS011;30477;48.224;11.470;2022-09-27T23:58:06;1.47;;;1.03;;
